sensor_id;sensor_type;location;lat;lon;timestamp;P1;durP1;ratioP1;P2;durP2;ratioP2
27163;SDS011;14685;50.618;7.024;2023-09-12T00:00:44;16.20;;;10.45;;
27163;SDS011;14685;50.618;7.024;2023-09-12T00:03:11;15.73;;;10.02;;
27163;SDS011;14685;50.618;7.024;2023-09-12T00:05:39;12.07;;;9.75;;
27163;SDS011;14685;50.618;7.024;2023-09-12T00:08:06;14.23;;;9.77;;
27163;SDS011;14685;50.618;7.024;2023-09-12T00:10:35;14.52;;;9.93;;
27163;SDS011;14685;50.618;7.024;2023-09-12T00:13:02;15.02;;;9.05;;
27163;SDS011;14685;50.618;7.024;2023-09-12T00:15:32;15.68;;;8.93;;
27163;SDS011;14685;50.618;7.024;2023-09-12T00:17:59;16.17;;;8.75;;
27163;SDS011;14685;50.618;7.024;2023-09-12T00:20:26;14.43;;;8.70;;
27163;SDS011;14685;50.618;7.024;2023-09-12T00:22:54;15.27;;;9.43;;
27163;SDS011;14685;50.618;7.024;2023-09-12T00:25:21;12.93;;;8.20;;
27163;SDS011;14685;50.618;7.024;2023-09-12T00:27:49;14.23;;;8.82;;
27163;SDS011;14685;50.618;7.024;2023-09-12T00:30:16;15.55;;;7.95;;
27163;SDS011;14685;50.618;7.024;2023-09-12T00:32:45;14.52;;;8.32;;
27163;SDS011;14685;50.618;7.024;2023-09-12T00:35:13;9.88;;;7.88;;
27163;SDS011;14685;50.618;7.024;2023-09-12T00:37:48;13.15;;;7.63;;
27163;SDS011;14685;50.618;7.024;2023-09-12T00:40:16;11.85;;;7.72;;
27163;SDS011;14685;50.618;7.024;2023-09-12T00:42:44;13.90;;;7.47;;
27163;SDS011;14685;50.618;7.024;2023-09-12T00:45:13;12.20;;;7.10;;
27163;SDS011;14685;50.618;7.024;2023-09-12T00:47:40;10.32;;;7.15;;
27163;SDS011;14685;50.618;7.024;2023-09-12T00:50:07;12.73;;;7.38;;
27163;SDS011;14685;50.618;7.024;2023-09-12T00:52:35;13.15;;;6.35;;
27163;SDS011;14685;50.618;7.024;2023-09-12T00:55:04;12.82;;;6.90;;
27163;SDS011;14685;50.618;7.024;2023-09-12T00:57:32;11.85;;;6.40;;
27163;SDS011;14685;50.618;7.024;2023-09-12T01:00:04;9.73;;;6.47;;
27163;SDS011;14685;50.618;7.024;2023-09-12T01:02:39;12.68;;;6.78;;
27163;SDS011;14685;50.618;7.024;2023-09-12T01:05:08;11.80;;;6.15;;
27163;SDS011;14685;50.618;7.024;2023-09-12T01:07:36;11.77;;;6.13;;
27163;SDS011;14685;50.618;7.024;2023-09-12T01:10:05;8.95;;;6.00;;
27163;SDS011;14685;50.618;7.024;2023-09-12T01:12:33;8.88;;;6.63;;
27163;SDS011;14685;50.618;7.024;2023-09-12T01:15:01;9.95;;;6.05;;
27163;SDS011;14685;50.618;7.024;2023-09-12T01:17:32;10.10;;;5.93;;
27163;SDS011;14685;50.618;7.024;2023-09-12T01:20:01;9.50;;;6.28;;
27163;SDS011;14685;50.618;7.024;2023-09-12T01:28:38;11.27;;;6.07;;
27163;SDS011;14685;50.618;7.024;2023-09-12T01:31:10;8.40;;;5.55;;
27163;SDS011;14685;50.618;7.024;2023-09-12T01:33:39;9.60;;;6.13;;
27163;SDS011;14685;50.618;7.024;2023-09-12T01:36:08;10.73;;;6.40;;
27163;SDS011;14685;50.618;7.024;2023-09-12T01:38:37;9.40;;;6.30;;
27163;SDS011;14685;50.618;7.024;2023-09-12T01:41:04;7.72;;;6.28;;
27163;SDS011;14685;50.618;7.024;2023-09-12T01:43:32;7.20;;;5.95;;
27163;SDS011;14685;50.618;7.024;2023-09-12T01:46:01;7.43;;;6.30;;
27163;SDS011;14685;50.618;7.024;2023-09-12T01:48:31;12.48;;;6.75;;
27163;SDS011;14685;50.618;7.024;2023-09-12T01:51:01;8.95;;;5.85;;
27163;SDS011;14685;50.618;7.024;2023-09-12T01:53:29;8.30;;;6.22;;
27163;SDS011;14685;50.618;7.024;2023-09-12T01:56:02;8.80;;;6.25;;
27163;SDS011;14685;50.618;7.024;2023-09-12T01:58:29;8.75;;;6.30;;
27163;SDS011;14685;50.618;7.024;2023-09-12T02:00:57;8.38;;;5.88;;
27163;SDS011;14685;50.618;7.024;2023-09-12T02:03:25;8.00;;;5.65;;
27163;SDS011;14685;50.618;7.024;2023-09-12T02:05:52;9.38;;;5.85;;
27163;SDS011;14685;50.618;7.024;2023-09-12T02:08:19;7.90;;;5.65;;
27163;SDS011;14685;50.618;7.024;2023-09-12T02:10:47;9.15;;;5.80;;
27163;SDS011;14685;50.618;7.024;2023-09-12T02:13:15;7.05;;;5.20;;
27163;SDS011;14685;50.618;7.024;2023-09-12T02:15:42;7.78;;;5.50;;
27163;SDS011;14685;50.618;7.024;2023-09-12T02:18:12;11.73;;;5.85;;
27163;SDS011;14685;50.618;7.024;2023-09-12T02:20:41;8.57;;;5.72;;
27163;SDS011;14685;50.618;7.024;2023-09-12T02:23:12;8.27;;;5.85;;
27163;SDS011;14685;50.618;7.024;2023-09-12T02:25:41;12.95;;;6.13;;
27163;SDS011;14685;50.618;7.024;2023-09-12T02:28:09;7.60;;;6.05;;
27163;SDS011;14685;50.618;7.024;2023-09-12T02:30:39;11.32;;;7.03;;
27163;SDS011;14685;50.618;7.024;2023-09-12T02:33:08;10.75;;;6.90;;
27163;SDS011;14685;50.618;7.024;2023-09-12T02:35:36;13.27;;;7.90;;
27163;SDS011;14685;50.618;7.024;2023-09-12T02:38:05;12.38;;;8.32;;
27163;SDS011;14685;50.618;7.024;2023-09-12T02:40:36;12.25;;;7.38;;
27163;SDS011;14685;50.618;7.024;2023-09-12T02:43:07;11.32;;;7.85;;
27163;SDS011;14685;50.618;7.024;2023-09-12T02:45:36;11.30;;;7.75;;
27163;SDS011;14685;50.618;7.024;2023-09-12T02:48:05;11.68;;;7.68;;
27163;SDS011;14685;50.618;7.024;2023-09-12T02:50:35;11.40;;;7.28;;
27163;SDS011;14685;50.618;7.024;2023-09-12T02:53:02;10.07;;;6.95;;
27163;SDS011;14685;50.618;7.024;2023-09-12T02:55:32;9.57;;;7.32;;
27163;SDS011;14685;50.618;7.024;2023-09-12T02:57:59;10.10;;;7.32;;
27163;SDS011;14685;50.618;7.024;2023-09-12T03:00:28;8.18;;;6.95;;
27163;SDS011;14685;50.618;7.024;2023-09-12T03:02:56;10.25;;;7.82;;
27163;SDS011;14685;50.618;7.024;2023-09-12T03:05:23;10.55;;;7.55;;
27163;SDS011;14685;50.618;7.024;2023-09-12T03:07:50;11.50;;;7.53;;
27163;SDS011;14685;50.618;7.024;2023-09-12T03:10:18;13.07;;;7.97;;
27163;SDS011;14685;50.618;7.024;2023-09-12T03:12:45;11.80;;;7.97;;
27163;SDS011;14685;50.618;7.024;2023-09-12T03:15:13;13.38;;;8.10;;
27163;SDS011;14685;50.618;7.024;2023-09-12T03:17:40;16.08;;;8.38;;
27163;SDS011;14685;50.618;7.024;2023-09-12T03:20:10;11.95;;;8.68;;
27163;SDS011;14685;50.618;7.024;2023-09-12T03:22:38;16.60;;;9.48;;
27163;SDS011;14685;50.618;7.024;2023-09-12T03:25:06;15.68;;;8.75;;
27163;SDS011;14685;50.618;7.024;2023-09-12T03:27:33;13.73;;;8.73;;
27163;SDS011;14685;50.618;7.024;2023-09-12T03:30:02;11.73;;;8.70;;
27163;SDS011;14685;50.618;7.024;2023-09-12T03:32:31;12.65;;;8.68;;
27163;SDS011;14685;50.618;7.024;2023-09-12T03:34:58;13.00;;;8.60;;
27163;SDS011;14685;50.618;7.024;2023-09-12T03:37:24;16.05;;;9.63;;
27163;SDS011;14685;50.618;7.024;2023-09-12T03:39:53;12.32;;;8.75;;
27163;SDS011;14685;50.618;7.024;2023-09-12T03:42:21;11.57;;;9.52;;
27163;SDS011;14685;50.618;7.024;2023-09-12T03:44:52;14.27;;;9.23;;
27163;SDS011;14685;50.618;7.024;2023-09-12T03:47:20;12.63;;;9.85;;
27163;SDS011;14685;50.618;7.024;2023-09-12T03:49:47;15.00;;;9.23;;
27163;SDS011;14685;50.618;7.024;2023-09-12T03:52:14;17.00;;;10.60;;
27163;SDS011;14685;50.618;7.024;2023-09-12T03:54:41;15.88;;;9.75;;
27163;SDS011;14685;50.618;7.024;2023-09-12T03:57:09;12.23;;;9.32;;
27163;SDS011;14685;50.618;7.024;2023-09-12T03:59:36;13.68;;;10.40;;
27163;SDS011;14685;50.618;7.024;2023-09-12T04:02:03;15.27;;;10.57;;
27163;SDS011;14685;50.618;7.024;2023-09-12T04:04:31;14.98;;;10.25;;
27163;SDS011;14685;50.618;7.024;2023-09-12T04:06:58;17.48;;;10.63;;
27163;SDS011;14685;50.618;7.024;2023-09-12T04:09:25;16.40;;;10.63;;
27163;SDS011;14685;50.618;7.024;2023-09-12T04:11:52;13.88;;;10.95;;
27163;SDS011;14685;50.618;7.024;2023-09-12T04:14:20;16.83;;;11.13;;
27163;SDS011;14685;50.618;7.024;2023-09-12T04:16:47;15.57;;;10.00;;
27163;SDS011;14685;50.618;7.024;2023-09-12T04:19:14;15.70;;;11.13;;
27163;SDS011;14685;50.618;7.024;2023-09-12T04:21:43;15.98;;;9.95;;
27163;SDS011;14685;50.618;7.024;2023-09-12T04:24:10;17.35;;;11.57;;
27163;SDS011;14685;50.618;7.024;2023-09-12T04:26:38;17.98;;;12.07;;
27163;SDS011;14685;50.618;7.024;2023-09-12T04:29:05;15.52;;;11.52;;
27163;SDS011;14685;50.618;7.024;2023-09-12T04:31:33;15.93;;;11.05;;
27163;SDS011;14685;50.618;7.024;2023-09-12T04:33:59;17.05;;;11.68;;
27163;SDS011;14685;50.618;7.024;2023-09-12T04:36:26;13.27;;;10.85;;
27163;SDS011;14685;50.618;7.024;2023-09-12T04:38:53;16.23;;;11.00;;
27163;SDS011;14685;50.618;7.024;2023-09-12T04:41:20;14.77;;;11.27;;
27163;SDS011;14685;50.618;7.024;2023-09-12T04:43:47;17.20;;;12.73;;
27163;SDS011;14685;50.618;7.024;2023-09-12T04:46:14;15.90;;;10.82;;
27163;SDS011;14685;50.618;7.024;2023-09-12T04:48:41;17.27;;;10.95;;
27163;SDS011;14685;50.618;7.024;2023-09-12T04:51:11;15.55;;;11.45;;
27163;SDS011;14685;50.618;7.024;2023-09-12T04:53:39;21.48;;;11.73;;
27163;SDS011;14685;50.618;7.024;2023-09-12T04:56:06;14.27;;;10.73;;
27163;SDS011;14685;50.618;7.024;2023-09-12T04:58:36;16.90;;;12.57;;
27163;SDS011;14685;50.618;7.024;2023-09-12T05:01:03;16.92;;;11.93;;
27163;SDS011;14685;50.618;7.024;2023-09-12T05:03:31;16.00;;;11.27;;
27163;SDS011;14685;50.618;7.024;2023-09-12T05:06:00;18.40;;;11.70;;
27163;SDS011;14685;50.618;7.024;2023-09-12T05:08:28;17.65;;;10.52;;
27163;SDS011;14685;50.618;7.024;2023-09-12T05:10:55;18.92;;;11.20;;
27163;SDS011;14685;50.618;7.024;2023-09-12T05:13:23;14.60;;;11.10;;
27163;SDS011;14685;50.618;7.024;2023-09-12T05:15:51;15.95;;;10.48;;
27163;SDS011;14685;50.618;7.024;2023-09-12T05:18:19;14.75;;;9.88;;
27163;SDS011;14685;50.618;7.024;2023-09-12T05:20:46;16.58;;;11.55;;
27163;SDS011;14685;50.618;7.024;2023-09-12T05:23:13;15.68;;;10.70;;
27163;SDS011;14685;50.618;7.024;2023-09-12T05:25:40;16.50;;;10.80;;
27163;SDS011;14685;50.618;7.024;2023-09-12T05:28:08;15.88;;;10.20;;
27163;SDS011;14685;50.618;7.024;2023-09-12T05:30:35;16.83;;;10.43;;
27163;SDS011;14685;50.618;7.024;2023-09-12T05:33:02;17.30;;;11.00;;
27163;SDS011;14685;50.618;7.024;2023-09-12T05:35:29;17.20;;;11.43;;
27163;SDS011;14685;50.618;7.024;2023-09-12T05:37:57;14.68;;;9.80;;
27163;SDS011;14685;50.618;7.024;2023-09-12T05:40:24;12.40;;;9.45;;
27163;SDS011;14685;50.618;7.024;2023-09-12T05:42:53;18.65;;;11.68;;
27163;SDS011;14685;50.618;7.024;2023-09-12T05:45:20;14.80;;;9.95;;
27163;SDS011;14685;50.618;7.024;2023-09-12T05:47:47;18.50;;;11.57;;
27163;SDS011;14685;50.618;7.024;2023-09-12T05:50:19;16.27;;;11.45;;
27163;SDS011;14685;50.618;7.024;2023-09-12T05:52:47;17.33;;;12.18;;
27163;SDS011;14685;50.618;7.024;2023-09-12T05:55:14;19.65;;;12.77;;
27163;SDS011;14685;50.618;7.024;2023-09-12T05:57:41;18.98;;;12.48;;
27163;SDS011;14685;50.618;7.024;2023-09-12T06:00:10;20.02;;;12.75;;
27163;SDS011;14685;50.618;7.024;2023-09-12T06:02:40;21.27;;;13.68;;
27163;SDS011;14685;50.618;7.024;2023-09-12T06:05:11;23.23;;;14.52;;
27163;SDS011;14685;50.618;7.024;2023-09-12T06:07:40;21.90;;;13.77;;
27163;SDS011;14685;50.618;7.024;2023-09-12T06:10:08;21.35;;;13.98;;
27163;SDS011;14685;50.618;7.024;2023-09-12T06:12:35;23.73;;;13.52;;
27163;SDS011;14685;50.618;7.024;2023-09-12T06:15:06;25.08;;;14.35;;
27163;SDS011;14685;50.618;7.024;2023-09-12T06:17:33;21.17;;;13.98;;
27163;SDS011;14685;50.618;7.024;2023-09-12T06:20:08;20.02;;;13.88;;
27163;SDS011;14685;50.618;7.024;2023-09-12T06:22:40;19.25;;;14.43;;
27163;SDS011;14685;50.618;7.024;2023-09-12T06:25:06;19.70;;;13.60;;
27163;SDS011;14685;50.618;7.024;2023-09-12T06:27:34;23.48;;;15.90;;
27163;SDS011;14685;50.618;7.024;2023-09-12T06:30:01;23.77;;;14.73;;
27163;SDS011;14685;50.618;7.024;2023-09-12T06:32:30;18.70;;;14.40;;
27163;SDS011;14685;50.618;7.024;2023-09-12T06:34:57;24.23;;;13.52;;
27163;SDS011;14685;50.618;7.024;2023-09-12T06:37:24;18.15;;;12.93;;
27163;SDS011;14685;50.618;7.024;2023-09-12T06:39:53;18.00;;;14.23;;
27163;SDS011;14685;50.618;7.024;2023-09-12T06:42:21;21.77;;;13.50;;
27163;SDS011;14685;50.618;7.024;2023-09-12T06:44:48;21.95;;;12.98;;
27163;SDS011;14685;50.618;7.024;2023-09-12T06:47:15;19.50;;;13.95;;
27163;SDS011;14685;50.618;7.024;2023-09-12T06:49:43;20.40;;;14.50;;
27163;SDS011;14685;50.618;7.024;2023-09-12T06:52:15;18.50;;;12.68;;
27163;SDS011;14685;50.618;7.024;2023-09-12T06:54:43;21.92;;;13.70;;
27163;SDS011;14685;50.618;7.024;2023-09-12T06:57:10;21.35;;;13.60;;
27163;SDS011;14685;50.618;7.024;2023-09-12T06:59:41;17.13;;;12.95;;
27163;SDS011;14685;50.618;7.024;2023-09-12T07:02:08;17.73;;;11.65;;
27163;SDS011;14685;50.618;7.024;2023-09-12T07:04:37;17.38;;;12.27;;
27163;SDS011;14685;50.618;7.024;2023-09-12T07:07:04;18.20;;;11.68;;
27163;SDS011;14685;50.618;7.024;2023-09-12T07:09:33;18.67;;;12.50;;
27163;SDS011;14685;50.618;7.024;2023-09-12T07:12:00;16.63;;;11.60;;
27163;SDS011;14685;50.618;7.024;2023-09-12T07:14:28;17.92;;;11.80;;
27163;SDS011;14685;50.618;7.024;2023-09-12T07:16:57;21.20;;;12.52;;
27163;SDS011;14685;50.618;7.024;2023-09-12T07:19:25;21.65;;;12.65;;
27163;SDS011;14685;50.618;7.024;2023-09-12T07:21:58;15.18;;;11.32;;
27163;SDS011;14685;50.618;7.024;2023-09-12T07:24:25;22.02;;;13.20;;
27163;SDS011;14685;50.618;7.024;2023-09-12T07:26:53;17.48;;;12.25;;
27163;SDS011;14685;50.618;7.024;2023-09-12T07:29:23;15.88;;;10.68;;
27163;SDS011;14685;50.618;7.024;2023-09-12T07:31:54;16.80;;;11.35;;
27163;SDS011;14685;50.618;7.024;2023-09-12T07:34:23;15.55;;;11.35;;
27163;SDS011;14685;50.618;7.024;2023-09-12T07:36:51;20.40;;;11.15;;
27163;SDS011;14685;50.618;7.024;2023-09-12T07:39:18;20.10;;;12.50;;
27163;SDS011;14685;50.618;7.024;2023-09-12T07:41:46;17.40;;;11.50;;
27163;SDS011;14685;50.618;7.024;2023-09-12T07:44:16;19.23;;;11.05;;
27163;SDS011;14685;50.618;7.024;2023-09-12T07:46:43;21.55;;;12.45;;
27163;SDS011;14685;50.618;7.024;2023-09-12T07:49:10;17.13;;;10.65;;
27163;SDS011;14685;50.618;7.024;2023-09-12T07:51:37;17.02;;;10.40;;
27163;SDS011;14685;50.618;7.024;2023-09-12T07:54:04;17.70;;;12.00;;
27163;SDS011;14685;50.618;7.024;2023-09-12T07:56:33;16.48;;;11.95;;
27163;SDS011;14685;50.618;7.024;2023-09-12T07:58:59;16.75;;;11.48;;
27163;SDS011;14685;50.618;7.024;2023-09-12T08:01:32;17.98;;;10.85;;
27163;SDS011;14685;50.618;7.024;2023-09-12T08:03:59;16.75;;;11.45;;
27163;SDS011;14685;50.618;7.024;2023-09-12T08:06:28;14.50;;;10.98;;
27163;SDS011;14685;50.618;7.024;2023-09-12T08:09:00;16.92;;;11.27;;
27163;SDS011;14685;50.618;7.024;2023-09-12T08:11:32;16.58;;;11.23;;
27163;SDS011;14685;50.618;7.024;2023-09-12T08:14:02;15.50;;;10.25;;
27163;SDS011;14685;50.618;7.024;2023-09-12T08:16:29;18.95;;;12.52;;
27163;SDS011;14685;50.618;7.024;2023-09-12T08:18:58;18.40;;;13.57;;
27163;SDS011;14685;50.618;7.024;2023-09-12T08:21:25;15.50;;;10.68;;
27163;SDS011;14685;50.618;7.024;2023-09-12T08:23:52;18.52;;;11.85;;
27163;SDS011;14685;50.618;7.024;2023-09-12T08:26:22;19.15;;;13.95;;
27163;SDS011;14685;50.618;7.024;2023-09-12T08:28:48;20.20;;;13.90;;
27163;SDS011;14685;50.618;7.024;2023-09-12T08:31:15;16.85;;;11.98;;
27163;SDS011;14685;50.618;7.024;2023-09-12T08:33:43;21.48;;;13.98;;
27163;SDS011;14685;50.618;7.024;2023-09-12T08:36:10;21.52;;;15.63;;
27163;SDS011;14685;50.618;7.024;2023-09-12T08:38:38;17.38;;;13.25;;
27163;SDS011;14685;50.618;7.024;2023-09-12T08:41:05;21.95;;;14.60;;
27163;SDS011;14685;50.618;7.024;2023-09-12T08:43:32;23.17;;;14.65;;
27163;SDS011;14685;50.618;7.024;2023-09-12T08:45:59;21.63;;;16.42;;
27163;SDS011;14685;50.618;7.024;2023-09-12T08:48:27;25.73;;;15.77;;
27163;SDS011;14685;50.618;7.024;2023-09-12T08:50:55;24.60;;;16.80;;
27163;SDS011;14685;50.618;7.024;2023-09-12T08:53:24;18.95;;;15.35;;
27163;SDS011;14685;50.618;7.024;2023-09-12T08:55:51;20.92;;;15.57;;
27163;SDS011;14685;50.618;7.024;2023-09-12T08:58:19;18.90;;;12.85;;
27163;SDS011;14685;50.618;7.024;2023-09-12T09:00:49;23.42;;;15.05;;
27163;SDS011;14685;50.618;7.024;2023-09-12T09:03:18;19.10;;;13.43;;
27163;SDS011;14685;50.618;7.024;2023-09-12T09:05:46;18.88;;;14.35;;
27163;SDS011;14685;50.618;7.024;2023-09-12T09:08:15;23.45;;;15.48;;
27163;SDS011;14685;50.618;7.024;2023-09-12T09:10:56;17.10;;;13.20;;
27163;SDS011;14685;50.618;7.024;2023-09-12T09:13:32;21.77;;;16.27;;
27163;SDS011;14685;50.618;7.024;2023-09-12T09:16:15;20.00;;;14.38;;
27163;SDS011;14685;50.618;7.024;2023-09-12T09:18:56;20.40;;;13.48;;
27163;SDS011;14685;50.618;7.024;2023-09-12T09:21:25;23.52;;;16.77;;
27163;SDS011;14685;50.618;7.024;2023-09-12T09:23:54;21.15;;;15.38;;
27163;SDS011;14685;50.618;7.024;2023-09-12T09:26:22;23.08;;;16.25;;
27163;SDS011;14685;50.618;7.024;2023-09-12T09:29:03;18.88;;;14.45;;
27163;SDS011;14685;50.618;7.024;2023-09-12T09:31:35;23.27;;;16.20;;
27163;SDS011;14685;50.618;7.024;2023-09-12T09:34:17;23.15;;;14.00;;
27163;SDS011;14685;50.618;7.024;2023-09-12T09:36:49;18.65;;;15.48;;
27163;SDS011;14685;50.618;7.024;2023-09-12T09:39:19;21.13;;;15.25;;
27163;SDS011;14685;50.618;7.024;2023-09-12T09:41:51;20.02;;;14.20;;
27163;SDS011;14685;50.618;7.024;2023-09-12T09:44:20;17.75;;;13.75;;
27163;SDS011;14685;50.618;7.024;2023-09-12T09:46:54;18.95;;;13.45;;
27163;SDS011;14685;50.618;7.024;2023-09-12T09:49:24;19.45;;;13.05;;
27163;SDS011;14685;50.618;7.024;2023-09-12T09:51:51;17.58;;;12.82;;
27163;SDS011;14685;50.618;7.024;2023-09-12T09:54:23;18.23;;;12.95;;
27163;SDS011;14685;50.618;7.024;2023-09-12T09:56:53;21.00;;;13.15;;
27163;SDS011;14685;50.618;7.024;2023-09-12T09:59:23;20.15;;;12.77;;
27163;SDS011;14685;50.618;7.024;2023-09-12T10:01:54;18.95;;;12.07;;
27163;SDS011;14685;50.618;7.024;2023-09-12T10:04:27;19.80;;;13.05;;
27163;SDS011;14685;50.618;7.024;2023-09-12T10:06:58;19.92;;;13.70;;
27163;SDS011;14685;50.618;7.024;2023-09-12T10:09:26;21.10;;;13.93;;
27163;SDS011;14685;50.618;7.024;2023-09-12T10:11:54;23.48;;;15.00;;
27163;SDS011;14685;50.618;7.024;2023-09-12T10:14:25;26.83;;;17.77;;
27163;SDS011;14685;50.618;7.024;2023-09-12T10:16:57;19.52;;;15.15;;
27163;SDS011;14685;50.618;7.024;2023-09-12T10:19:37;22.35;;;16.40;;
27163;SDS011;14685;50.618;7.024;2023-09-12T10:22:32;25.35;;;18.45;;
27163;SDS011;14685;50.618;7.024;2023-09-12T10:25:00;20.13;;;17.58;;
27163;SDS011;14685;50.618;7.024;2023-09-12T10:27:28;23.80;;;19.05;;
27163;SDS011;14685;50.618;7.024;2023-09-12T10:29:59;20.90;;;18.02;;
27163;SDS011;14685;50.618;7.024;2023-09-12T10:32:28;23.85;;;18.98;;
27163;SDS011;14685;50.618;7.024;2023-09-12T10:34:58;21.67;;;18.02;;
27163;SDS011;14685;50.618;7.024;2023-09-12T10:37:29;23.73;;;19.05;;
27163;SDS011;14685;50.618;7.024;2023-09-12T10:39:59;21.02;;;18.83;;
27163;SDS011;14685;50.618;7.024;2023-09-12T10:42:31;23.23;;;18.88;;
27163;SDS011;14685;50.618;7.024;2023-09-12T10:45:01;25.85;;;18.90;;
27163;SDS011;14685;50.618;7.024;2023-09-12T10:47:37;26.92;;;19.13;;
27163;SDS011;14685;50.618;7.024;2023-09-12T10:50:06;24.75;;;17.88;;
27163;SDS011;14685;50.618;7.024;2023-09-12T10:52:34;20.95;;;16.58;;
27163;SDS011;14685;50.618;7.024;2023-09-12T10:55:06;20.02;;;15.70;;
27163;SDS011;14685;50.618;7.024;2023-09-12T10:57:35;21.83;;;17.23;;
27163;SDS011;14685;50.618;7.024;2023-09-12T11:00:33;17.98;;;15.02;;
27163;SDS011;14685;50.618;7.024;2023-09-12T11:03:35;17.65;;;14.30;;
27163;SDS011;14685;50.618;7.024;2023-09-12T11:05:57;16.90;;;15.10;;
27163;SDS011;14685;50.618;7.024;2023-09-12T11:08:24;21.63;;;15.75;;
27163;SDS011;14685;50.618;7.024;2023-09-12T11:14:04;19.83;;;17.02;;
27163;SDS011;14685;50.618;7.024;2023-09-12T11:16:33;26.55;;;17.40;;
27163;SDS011;14685;50.618;7.024;2023-09-12T11:19:20;23.30;;;15.52;;
27163;SDS011;14685;50.618;7.024;2023-09-12T11:21:53;19.40;;;14.00;;
27163;SDS011;14685;50.618;7.024;2023-09-12T11:24:22;18.20;;;14.25;;
27163;SDS011;14685;50.618;7.024;2023-09-12T11:26:56;23.63;;;14.10;;
27163;SDS011;14685;50.618;7.024;2023-09-12T11:29:29;18.92;;;13.38;;
27163;SDS011;14685;50.618;7.024;2023-09-12T11:32:01;17.17;;;12.95;;
27163;SDS011;14685;50.618;7.024;2023-09-12T11:34:31;22.92;;;15.30;;
27163;SDS011;14685;50.618;7.024;2023-09-12T11:37:12;17.00;;;10.80;;
27163;SDS011;14685;50.618;7.024;2023-09-12T11:39:50;16.30;;;10.75;;
27163;SDS011;14685;50.618;7.024;2023-09-12T11:42:19;17.42;;;11.95;;
27163;SDS011;14685;50.618;7.024;2023-09-12T11:44:49;16.45;;;12.25;;
27163;SDS011;14685;50.618;7.024;2023-09-12T11:47:17;19.33;;;13.75;;
27163;SDS011;14685;50.618;7.024;2023-09-12T11:49:44;20.50;;;12.35;;
27163;SDS011;14685;50.618;7.024;2023-09-12T11:52:13;16.85;;;12.43;;
27163;SDS011;14685;50.618;7.024;2023-09-12T11:54:43;18.80;;;12.00;;
27163;SDS011;14685;50.618;7.024;2023-09-12T11:57:14;13.38;;;10.38;;
27163;SDS011;14685;50.618;7.024;2023-09-12T11:59:43;13.73;;;10.95;;
27163;SDS011;14685;50.618;7.024;2023-09-12T12:02:18;15.30;;;11.45;;
27163;SDS011;14685;50.618;7.024;2023-09-12T12:04:50;14.48;;;11.02;;
27163;SDS011;14685;50.618;7.024;2023-09-12T12:07:20;16.27;;;12.43;;
27163;SDS011;14685;50.618;7.024;2023-09-12T12:09:47;16.75;;;12.23;;
27163;SDS011;14685;50.618;7.024;2023-09-12T12:12:15;17.20;;;11.35;;
27163;SDS011;14685;50.618;7.024;2023-09-12T12:14:44;16.38;;;12.35;;
27163;SDS011;14685;50.618;7.024;2023-09-12T12:17:11;14.98;;;10.02;;
27163;SDS011;14685;50.618;7.024;2023-09-12T12:19:39;13.70;;;11.10;;
27163;SDS011;14685;50.618;7.024;2023-09-12T12:22:11;12.45;;;10.82;;
27163;SDS011;14685;50.618;7.024;2023-09-12T12:24:39;12.57;;;11.00;;
27163;SDS011;14685;50.618;7.024;2023-09-12T12:27:08;14.60;;;11.10;;
27163;SDS011;14685;50.618;7.024;2023-09-12T12:29:37;16.10;;;11.18;;
27163;SDS011;14685;50.618;7.024;2023-09-12T12:32:06;13.88;;;11.00;;
27163;SDS011;14685;50.618;7.024;2023-09-12T12:34:35;13.23;;;10.70;;
27163;SDS011;14685;50.618;7.024;2023-09-12T12:37:27;13.27;;;10.95;;
27163;SDS011;14685;50.618;7.024;2023-09-12T12:39:57;15.30;;;10.60;;
27163;SDS011;14685;50.618;7.024;2023-09-12T12:42:28;16.60;;;10.60;;
27163;SDS011;14685;50.618;7.024;2023-09-12T12:45:17;13.70;;;10.57;;
27163;SDS011;14685;50.618;7.024;2023-09-12T12:47:46;11.23;;;9.55;;
27163;SDS011;14685;50.618;7.024;2023-09-12T12:50:17;12.73;;;10.27;;
27163;SDS011;14685;50.618;7.024;2023-09-12T12:52:50;10.52;;;8.45;;
27163;SDS011;14685;50.618;7.024;2023-09-12T12:55:19;11.77;;;8.80;;
27163;SDS011;14685;50.618;7.024;2023-09-12T12:57:47;15.00;;;9.20;;
27163;SDS011;14685;50.618;7.024;2023-09-12T13:03:35;13.35;;;7.90;;
27163;SDS011;14685;50.618;7.024;2023-09-12T13:06:03;8.68;;;7.60;;
27163;SDS011;14685;50.618;7.024;2023-09-12T13:08:33;10.43;;;8.15;;
27163;SDS011;14685;50.618;7.024;2023-09-12T13:11:07;7.30;;;6.38;;
27163;SDS011;14685;50.618;7.024;2023-09-12T13:13:43;8.23;;;6.18;;
27163;SDS011;14685;50.618;7.024;2023-09-12T13:16:12;9.80;;;6.88;;
27163;SDS011;14685;50.618;7.024;2023-09-12T13:18:40;8.45;;;6.65;;
27163;SDS011;14685;50.618;7.024;2023-09-12T13:21:08;8.00;;;6.50;;
27163;SDS011;14685;50.618;7.024;2023-09-12T13:23:36;9.13;;;6.18;;
27163;SDS011;14685;50.618;7.024;2023-09-12T13:26:07;8.52;;;6.07;;
27163;SDS011;14685;50.618;7.024;2023-09-12T13:28:35;7.28;;;6.00;;
27163;SDS011;14685;50.618;7.024;2023-09-12T13:31:04;8.07;;;5.63;;
27163;SDS011;14685;50.618;7.024;2023-09-12T13:33:34;12.05;;;6.15;;
27163;SDS011;14685;50.618;7.024;2023-09-12T13:36:02;9.10;;;5.90;;
27163;SDS011;14685;50.618;7.024;2023-09-12T13:38:32;8.93;;;5.20;;
27163;SDS011;14685;50.618;7.024;2023-09-12T13:41:00;8.40;;;4.90;;
27163;SDS011;14685;50.618;7.024;2023-09-12T13:43:29;6.78;;;5.03;;
27163;SDS011;14685;50.618;7.024;2023-09-12T13:45:57;6.72;;;5.05;;
27163;SDS011;14685;50.618;7.024;2023-09-12T13:48:27;7.65;;;5.22;;
27163;SDS011;14685;50.618;7.024;2023-09-12T13:50:54;8.38;;;5.25;;
27163;SDS011;14685;50.618;7.024;2023-09-12T13:53:22;6.50;;;4.70;;
27163;SDS011;14685;50.618;7.024;2023-09-12T13:55:50;7.85;;;5.20;;
27163;SDS011;14685;50.618;7.024;2023-09-12T13:58:25;5.95;;;5.28;;
27163;SDS011;14685;50.618;7.024;2023-09-12T14:01:04;5.95;;;4.72;;
27163;SDS011;14685;50.618;7.024;2023-09-12T14:03:31;9.75;;;5.80;;
27163;SDS011;14685;50.618;7.024;2023-09-12T14:06:01;7.15;;;5.00;;
27163;SDS011;14685;50.618;7.024;2023-09-12T14:08:30;7.80;;;5.35;;
27163;SDS011;14685;50.618;7.024;2023-09-12T14:10:58;5.68;;;5.07;;
27163;SDS011;14685;50.618;7.024;2023-09-12T14:13:27;8.98;;;5.18;;
27163;SDS011;14685;50.618;7.024;2023-09-12T14:15:59;7.80;;;5.10;;
27163;SDS011;14685;50.618;7.024;2023-09-12T14:18:26;5.85;;;5.30;;
27163;SDS011;14685;50.618;7.024;2023-09-12T14:20:56;9.25;;;5.25;;
27163;SDS011;14685;50.618;7.024;2023-09-12T14:23:24;7.20;;;5.28;;
27163;SDS011;14685;50.618;7.024;2023-09-12T14:25:55;5.78;;;5.18;;
27163;SDS011;14685;50.618;7.024;2023-09-12T14:28:22;5.28;;;4.65;;
27163;SDS011;14685;50.618;7.024;2023-09-12T14:30:52;5.18;;;4.68;;
27163;SDS011;14685;50.618;7.024;2023-09-12T14:33:23;6.93;;;5.43;;
27163;SDS011;14685;50.618;7.024;2023-09-12T14:35:51;9.10;;;5.53;;
27163;SDS011;14685;50.618;7.024;2023-09-12T14:38:20;9.65;;;4.97;;
27163;SDS011;14685;50.618;7.024;2023-09-12T14:40:48;8.02;;;5.78;;
27163;SDS011;14685;50.618;7.024;2023-09-12T14:43:15;6.32;;;4.70;;
27163;SDS011;14685;50.618;7.024;2023-09-12T14:45:43;8.93;;;5.65;;
27163;SDS011;14685;50.618;7.024;2023-09-12T14:48:11;9.05;;;5.32;;
27163;SDS011;14685;50.618;7.024;2023-09-12T14:50:38;7.15;;;5.47;;
27163;SDS011;14685;50.618;7.024;2023-09-12T14:53:09;6.43;;;5.30;;